Time,TemperatureF,DewpointF,PressureIn,WindDirection,WindDirectionDegrees,WindSpeedMPH,WindSpeedGustMPH,Humidity,HourlyPrecipIn,Conditions,Clouds,dailyrainin,SoftwareType,DateUTC
2013-07-23 00:01:00,63.3,16.4,27.49,WSW,238,0.0,0.0,16,0.00,,---,0.00,VWS V14.01,2013-07-23 07:01:00,
2013-07-23 00:06:00,63.1,16.2,27.49,WSW,238,0.0,0.0,16,0.00,,---,0.00,VWS V14.01,2013-07-23 07:06:00,
2013-07-23 00:11:00,62.6,15.8,27.49,WSW,238,0.0,0.0,16,0.00,,---,0.00,VWS V14.01,2013-07-23 07:11:00,
2013-07-23 00:16:00,62.4,15.7,27.49,WSW,238,0.0,0.0,16,0.00,,---,0.00,VWS V14.01,2013-07-23 07:16:00,
2013-07-23 00:21:00,62.4,15.7,27.49,WSW,238,0.0,0.0,16,0.00,,---,0.00,VWS V14.01,2013-07-23 07:21:00,
2013-07-23 00:26:00,62.2,15.5,27.49,WSW,238,0.0,0.0,16,0.00,,---,0.00,VWS V14.01,2013-07-23 07:26:00,
2013-07-23 00:31:00,62.2,15.5,27.49,WSW,238,0.0,0.0,16,0.00,,---,0.00,VWS V14.01,2013-07-23 07:31:00,
2013-07-23 00:36:00,61.7,15.1,27.49,WSW,238,0.0,0.0,16,0.00,,---,0.00,VWS V14.01,2013-07-23 07:36:00,
2013-07-23 00:41:00,61.7,15.1,27.49,WSW,238,0.0,0.0,16,0.00,,---,0.00,VWS V14.01,2013-07-23 07:41:00,
2013-07-23 00:46:00,61.7,15.1,27.49,WSW,238,0.0,0.0,16,0.00,,---,0.00,VWS V14.01,2013-07-23 07:46:00,
2013-07-23 00:51:00,61.5,14.9,27.49,SSE,156,0.0,0.0,16,0.00,,---,0.00,VWS V14.01,2013-07-23 07:51:00,
2013-07-23 00:56:00,61.3,14.8,27.49,SSE,156,0.0,0.0,16,0.00,,---,0.00,VWS V14.01,2013-07-23 07:56:00,
2013-07-23 01:01:00,61.0,14.5,27.49,SSE,156,0.0,0.0,16,0.00,,---,0.00,VWS V14.01,2013-07-23 08:01:00,
2013-07-23 01:06:00,61.0,14.5,27.49,South,183,0.0,0.0,16,0.00,,---,0.00,VWS V14.01,2013-07-23 08:06:00,
2013-07-23 01:11:00,61.0,14.5,27.49,South,182,0.0,0.0,16,0.00,,---,0.00,VWS V14.01,2013-07-23 08:11:00,
2013-07-23 01:16:00,61.0,14.5,27.49,SSW,194,0.0,0.0,16,0.00,,---,0.00,VWS V14.01,2013-07-23 08:16:00,
2013-07-23 01:21:00,61.3,14.8,27.49,NW,305,0.0,0.0,16,0.00,,---,0.00,VWS V14.01,2013-07-23 08:21:00,
2013-07-23 01:26:00,61.3,14.8,27.49,SE,136,0.0,0.0,16,0.00,,---,0.00,VWS V14.01,2013-07-23 08:26:00,
2013-07-23 01:31:00,61.3,14.8,27.49,West,271,0.0,0.0,16,0.00,,---,0.00,VWS V14.01,2013-07-23 08:31:00,
2013-07-23 01:36:00,61.3,14.8,27.49,SW,234,0.0,0.0,16,0.00,,---,0.00,VWS V14.01,2013-07-23 08:36:00,
2013-07-23 01:41:00,61.2,14.6,27.49,SSE,168,0.0,0.0,16,0.00,,---,0.00,VWS V14.01,2013-07-23 08:41:00,
2013-07-23 01:46:00,61.0,14.5,27.49,SW,218,0.0,5.4,16,0.00,,---,0.00,VWS V14.01,2013-07-23 08:46:00,
2013-07-23 01:51:00,60.6,15.6,27.49,SW,220,0.0,4.0,17,0.00,,---,0.00,VWS V14.01,2013-07-23 08:51:00,
2013-07-23 01:56:00,60.4,15.4,27.49,WSW,244,0.0,0.0,17,0.00,,---,0.00,VWS V14.01,2013-07-23 08:56:00,
2013-07-23 02:01:00,60.4,15.4,27.49,SW,220,0.0,0.0,17,0.00,,---,0.00,VWS V14.01,2013-07-23 09:01:00,
2013-07-23 02:06:00,60.6,15.6,27.49,South,188,0.0,0.0,17,0.00,,---,0.00,VWS V14.01,2013-07-23 09:06:00,
2013-07-23 02:11:00,61.0,14.5,27.49,WSW,244,0.0,0.0,16,0.00,,---,0.00,VWS V14.01,2013-07-23 09:11:00,
2013-07-23 02:16:00,61.2,14.6,27.49,NE,51,0.0,0.0,16,0.00,,---,0.00,VWS V14.01,2013-07-23 09:16:00,
2013-07-23 02:21:00,61.3,14.8,27.49,SW,222,0.0,0.0,16,0.00,,---,0.00,VWS V14.01,2013-07-23 09:21:00,
2013-07-23 02:26:00,61.3,14.8,27.52,SSW,196,0.0,2.7,16,0.00,,---,0.00,VWS V14.01,2013-07-23 09:26:00,
2013-07-23 02:31:00,61.3,14.8,27.52,WSW,248,0.0,0.0,16,0.00,,---,0.00,VWS V14.01,2013-07-23 09:31:00,
2013-07-23 02:36:00,61.3,14.8,27.52,WSW,258,2.7,2.7,16,0.00,,---,0.00,VWS V14.01,2013-07-23 09:36:00,
2013-07-23 02:41:00,61.0,14.5,27.52,SW,236,0.0,3.6,16,0.00,,---,0.00,VWS V14.01,2013-07-23 09:41:00,
2013-07-23 02:46:00,60.8,14.4,27.52,SSW,209,4.0,4.0,16,0.00,,---,0.00,VWS V14.01,2013-07-23 09:46:00,
2013-07-23 02:51:00,60.1,15.1,27.52,SW,227,0.0,0.0,17,0.00,,---,0.00,VWS V14.01,2013-07-23 09:51:00,
2013-07-23 02:56:00,59.5,14.7,27.52,SW,224,0.0,2.7,17,0.00,,---,0.00,VWS V14.01,2013-07-23 09:56:00,
2013-07-23 03:01:00,59.2,14.4,27.52,SW,226,0.0,3.1,17,0.00,,---,0.00,VWS V14.01,2013-07-23 10:01:00,
2013-07-23 03:06:00,58.8,14.1,27.52,WSW,237,0.0,2.7,17,0.00,,---,0.00,VWS V14.01,2013-07-23 10:06:00,
2013-07-23 03:11:00,59.0,14.3,27.52,WSW,250,0.0,0.0,17,0.00,,---,0.00,VWS V14.01,2013-07-23 10:11:00,
2013-07-23 03:16:00,59.0,14.3,27.52,WSW,242,0.0,0.0,17,0.00,,---,0.00,VWS V14.01,2013-07-23 10:16:00,
2013-07-23 03:21:00,58.8,14.1,27.52,SW,231,0.0,3.1,17,0.00,,---,0.00,VWS V14.01,2013-07-23 10:21:00,
2013-07-23 03:26:00,58.6,14.0,27.52,SW,222,0.0,0.0,17,0.00,,---,0.00,VWS V14.01,2013-07-23 10:26:00,
2013-07-23 03:31:00,58.5,13.8,27.52,SW,223,0.0,0.0,17,0.00,,---,0.00,VWS V14.01,2013-07-23 10:31:00,
2013-07-23 03:36:00,58.1,13.5,27.52,SW,234,0.0,0.0,17,0.00,,---,0.00,VWS V14.01,2013-07-23 10:36:00,
2013-07-23 03:41:00,58.3,13.7,27.52,SW,233,0.0,0.0,17,0.00,,---,0.00,VWS V14.01,2013-07-23 10:41:00,
2013-07-23 03:46:00,58.8,14.1,27.52,SW,234,0.0,0.0,17,0.00,,---,0.00,VWS V14.01,2013-07-23 10:46:00,
2013-07-23 03:51:00,59.0,14.3,27.52,SW,234,0.0,0.0,17,0.00,,---,0.00,VWS V14.01,2013-07-23 10:51:00,
2013-07-23 03:56:00,59.0,14.3,27.52,SSW,195,0.0,0.0,17,0.00,,---,0.00,VWS V14.01,2013-07-23 10:56:00,
2013-07-23 04:01:00,59.0,14.3,27.52,SW,220,2.7,2.7,17,0.00,,---,0.00,VWS V14.01,2013-07-23 11:01:00,
2013-07-23 04:06:00,58.8,14.1,27.52,SW,222,4.0,4.0,17,0.00,,---,0.00,VWS V14.01,2013-07-23 11:06:00,
2013-07-23 04:11:00,58.3,13.7,27.52,SSW,195,0.0,0.0,17,0.00,,---,0.00,VWS V14.01,2013-07-23 11:11:00,
2013-07-23 04:16:00,58.1,13.5,27.52,WSW,240,0.0,0.0,17,0.00,,---,0.00,VWS V14.01,2013-07-23 11:16:00,
2013-07-23 04:21:00,57.9,13.4,27.52,SW,226,0.0,0.0,17,0.00,,---,0.00,VWS V14.01,2013-07-23 11:21:00,
2013-07-23 04:26:00,57.9,13.4,27.52,SW,224,3.1,4.0,17,0.00,,---,0.00,VWS V14.01,2013-07-23 11:26:00,
2013-07-23 04:31:00,57.7,13.2,27.52,SW,223,0.0,0.0,17,0.00,,---,0.00,VWS V14.01,2013-07-23 11:31:00,
2013-07-23 04:36:00,57.7,13.2,27.52,SW,231,0.0,0.0,17,0.00,,---,0.00,VWS V14.01,2013-07-23 11:36:00,
2013-07-23 04:41:00,57.7,13.2,27.52,SW,226,0.0,0.0,17,0.00,,---,0.00,VWS V14.01,2013-07-23 11:41:00,
2013-07-23 04:46:00,57.6,13.1,27.52,SW,214,0.0,0.0,17,0.00,,---,0.00,VWS V14.01,2013-07-23 11:46:00,
2013-07-23 04:51:00,57.6,13.1,27.52,ENE,64,0.0,0.0,17,0.00,,---,0.00,VWS V14.01,2013-07-23 11:51:00,
2013-07-23 04:56:00,57.6,13.1,27.52,SW,236,0.0,0.0,17,0.00,,---,0.00,VWS V14.01,2013-07-23 11:56:00,
2013-07-23 05:01:00,57.6,13.1,27.52,WSW,246,2.7,2.7,17,0.00,,---,0.00,VWS V14.01,2013-07-23 12:01:00,
2013-07-23 05:06:00,57.6,13.1,27.52,SW,223,2.7,3.1,17,0.00,,---,0.00,VWS V14.01,2013-07-23 12:06:00,
2013-07-23 05:11:00,57.7,15.8,27.52,SW,233,3.6,5.4,19,0.00,,---,0.00,VWS V14.01,2013-07-23 12:11:00,
2013-07-23 05:16:00,57.6,15.6,27.52,SW,218,0.0,0.0,19,0.00,,---,0.00,VWS V14.01,2013-07-23 12:16:00,
2013-07-23 05:21:00,57.7,15.8,27.52,WSW,237,0.0,2.7,19,0.00,,---,0.00,VWS V14.01,2013-07-23 12:21:00,
2013-07-23 05:25:00,57.7,15.8,27.55,WSW,237,0.0,2.7,19,0.00,,---,0.00,VWS V14.01,2013-07-23 12:25:00,
2013-07-23 05:31:00,57.7,15.8,27.55,SW,214,0.0,0.0,19,0.00,,---,0.00,VWS V14.01,2013-07-23 12:31:00,
2013-07-23 05:35:00,57.7,15.8,27.55,SW,217,0.0,0.0,19,0.00,,---,0.00,VWS V14.01,2013-07-23 12:35:00,
2013-07-23 05:40:00,59.0,16.8,27.55,SW,216,2.7,3.6,19,0.00,,---,0.00,VWS V14.01,2013-07-23 12:40:00,
2013-07-23 05:45:00,61.2,18.6,27.55,SSW,211,0.0,0.0,19,0.00,,---,0.00,VWS V14.01,2013-07-23 12:45:00,
2013-07-23 05:50:00,64.0,17.0,27.55,WSW,237,3.6,3.6,16,0.00,,---,0.00,VWS V14.01,2013-07-23 12:50:00,
2013-07-23 05:55:00,66.4,17.4,27.55,SW,214,3.1,3.1,15,0.00,,---,0.00,VWS V14.01,2013-07-23 12:55:00,
2013-07-23 06:00:00,68.0,18.7,27.55,SSW,212,0.0,2.2,15,0.00,,---,0.00,VWS V14.01,2013-07-23 13:00:00,
2013-07-23 06:05:00,68.7,19.2,27.55,SW,228,0.0,0.0,15,0.00,,---,0.00,VWS V14.01,2013-07-23 13:05:00,
2013-07-23 06:10:00,68.5,19.1,27.55,SW,225,0.0,0.0,15,0.00,,---,0.00,VWS V14.01,2013-07-23 13:10:00,
2013-07-23 06:15:00,70.0,18.6,27.55,SSW,212,0.0,0.0,14,0.00,,---,0.00,VWS V14.01,2013-07-23 13:15:00,
2013-07-23 06:20:00,71.6,19.9,27.55,SW,225,0.0,0.0,14,0.00,,---,0.00,VWS V14.01,2013-07-23 13:20:00,
2013-07-23 06:25:00,72.7,20.8,27.55,SW,226,0.0,0.0,14,0.00,,---,0.00,VWS V14.01,2013-07-23 13:25:00,
2013-07-23 06:30:00,72.7,20.8,27.55,West,262,0.0,0.0,14,0.00,,---,0.00,VWS V14.01,2013-07-23 13:30:00,
2013-07-23 06:35:00,72.0,20.2,27.55,SW,220,0.0,3.1,14,0.00,,---,0.00,VWS V14.01,2013-07-23 13:35:00,
2013-07-23 06:40:00,71.4,19.8,27.55,WSW,237,0.0,0.0,14,0.00,,---,0.00,VWS V14.01,2013-07-23 13:40:00,
2013-07-23 06:45:00,71.1,19.5,27.55,SW,224,2.2,2.7,14,0.00,,---,0.00,VWS V14.01,2013-07-23 13:45:00,
2013-07-23 06:50:00,72.3,23.6,27.55,SE,139,0.0,0.0,16,0.00,,---,0.00,VWS V14.01,2013-07-23 13:50:00,
2013-07-23 06:55:00,72.3,20.5,27.55,WSW,247,0.0,0.0,14,0.00,,---,0.00,VWS V14.01,2013-07-23 13:55:00,
2013-07-23 07:00:00,74.3,25.2,27.55,WSW,247,0.0,2.7,16,0.00,,---,0.00,VWS V14.01,2013-07-23 14:00:00,
2013-07-23 07:05:00,75.2,24.4,27.55,WSW,247,3.1,3.1,15,0.00,,---,0.00,VWS V14.01,2013-07-23 14:05:00,
2013-07-23 07:10:00,78.4,27.0,27.55,WSW,247,0.0,0.0,15,0.00,,---,0.00,VWS V14.01,2013-07-23 14:10:00,
2013-07-23 07:15:00,79.7,28.0,27.55,WSW,256,2.2,2.2,15,0.00,,---,0.00,VWS V14.01,2013-07-23 14:15:00,
2013-07-23 07:20:00,80.4,28.6,27.55,NE,47,2.2,2.2,15,0.00,,---,0.00,VWS V14.01,2013-07-23 14:20:00,
2013-07-23 07:25:00,79.9,28.1,27.55,West,264,2.2,3.1,15,0.00,,---,0.00,VWS V14.01,2013-07-23 14:25:00,
2013-07-23 07:30:00,78.3,26.9,27.55,SSW,208,2.7,2.7,15,0.00,,---,0.00,VWS V14.01,2013-07-23 14:30:00,
2013-07-23 07:35:00,75.6,24.7,27.55,SW,227,0.0,2.7,15,0.00,,---,0.00,VWS V14.01,2013-07-23 14:35:00,
2013-07-23 07:40:00,77.0,25.9,27.58,WSW,243,2.7,2.7,15,0.00,,---,0.00,VWS V14.01,2013-07-23 14:40:00,
2013-07-23 07:45:00,80.6,27.0,27.58,South,190,3.1,3.1,14,0.00,,---,0.00,VWS V14.01,2013-07-23 14:45:00,
2013-07-23 07:50:00,82.2,28.3,27.58,SSW,210,2.2,5.4,14,0.00,,---,0.00,VWS V14.01,2013-07-23 14:50:00,
2013-07-23 07:55:00,83.7,29.5,27.58,SSE,168,0.0,3.6,14,0.00,,---,0.00,VWS V14.01,2013-07-23 14:55:00,
2013-07-23 08:00:00,83.3,29.2,27.58,West,274,0.0,0.0,14,0.00,,---,0.00,VWS V14.01,2013-07-23 15:00:00,
2013-07-23 08:05:00,83.1,29.0,27.58,SSW,194,0.0,0.0,14,0.00,,---,0.00,VWS V14.01,2013-07-23 15:05:00,
2013-07-23 08:10:00,81.0,27.3,27.58,South,188,0.0,3.1,14,0.00,,---,0.00,VWS V14.01,2013-07-23 15:10:00,
2013-07-23 08:15:00,77.4,26.1,27.58,SSE,158,0.0,2.7,15,0.00,,---,0.00,VWS V14.01,2013-07-23 15:15:00,
2013-07-23 08:20:00,75.6,24.7,27.58,SE,125,0.0,2.7,15,0.00,,---,0.00,VWS V14.01,2013-07-23 15:20:00,
2013-07-23 08:25:00,74.7,25.5,27.58,WSW,237,0.0,3.1,16,0.00,,---,0.00,VWS V14.01,2013-07-23 15:25:00,
2013-07-23 08:30:00,74.7,25.5,27.58,WSW,243,7.6,7.6,16,0.00,,---,0.00,VWS V14.01,2013-07-23 15:30:00,
2013-07-23 08:35:00,75.0,25.8,27.58,SW,225,7.6,7.6,16,0.00,,---,0.00,VWS V14.01,2013-07-23 15:35:00,
2013-07-23 08:40:00,75.2,24.4,27.58,SW,228,8.7,8.7,15,0.00,,---,0.00,VWS V14.01,2013-07-23 15:40:00,
2013-07-23 08:45:00,75.4,24.6,27.58,SSW,204,4.5,4.9,15,0.00,,---,0.00,VWS V14.01,2013-07-23 15:45:00,
2013-07-23 08:50:00,75.6,24.7,27.58,SSW,213,3.1,5.4,15,0.00,,---,0.00,VWS V14.01,2013-07-23 15:50:00,
2013-07-23 08:55:00,75.7,24.9,27.58,WSW,243,6.7,6.7,15,0.00,,---,0.00,VWS V14.01,2013-07-23 15:55:00,
2013-07-23 09:00:00,75.9,25.0,27.58,South,180,3.1,4.0,15,0.00,,---,0.00,VWS V14.01,2013-07-23 16:00:00,
2013-07-23 09:05:00,76.5,25.4,27.58,SW,232,5.4,5.4,15,0.00,,---,0.00,VWS V14.01,2013-07-23 16:05:00,
2013-07-23 09:10:00,76.8,25.7,27.58,SW,218,3.1,4.9,15,0.00,,---,0.00,VWS V14.01,2013-07-23 16:10:00,
2013-07-23 09:15:00,77.5,26.3,27.58,WSW,258,8.1,10.1,15,0.00,,---,0.00,VWS V14.01,2013-07-23 16:15:00,
2013-07-23 09:20:00,77.7,26.4,27.58,South,183,3.6,3.6,15,0.00,,---,0.00,VWS V14.01,2013-07-23 16:20:00,
2013-07-23 09:25:00,78.3,26.9,27.58,SSW,195,4.9,5.8,15,0.00,,---,0.00,VWS V14.01,2013-07-23 16:25:00,
2013-07-23 09:30:00,78.3,26.9,27.58,South,170,4.0,8.1,15,0.00,,---,0.00,VWS V14.01,2013-07-23 16:30:00,
2013-07-23 09:35:00,78.4,27.0,27.58,SW,225,5.4,5.4,15,0.00,,---,0.00,VWS V14.01,2013-07-23 16:35:00,
2013-07-23 09:40:00,78.8,27.3,27.58,SE,137,2.2,5.4,15,0.00,,---,0.00,VWS V14.01,2013-07-23 16:40:00,
2013-07-23 09:45:00,79.2,27.6,27.58,SSW,204,4.9,7.6,15,0.00,,---,0.00,VWS V14.01,2013-07-23 16:45:00,
2013-07-23 09:50:00,79.3,27.7,27.58,SW,219,3.6,4.5,15,0.00,,---,0.00,VWS V14.01,2013-07-23 16:50:00,
2013-07-23 09:55:00,79.9,28.1,27.58,West,266,3.6,4.0,15,0.00,,---,0.00,VWS V14.01,2013-07-23 16:55:00,
2013-07-23 10:00:00,80.4,28.6,27.58,SW,222,7.6,7.6,15,0.00,,---,0.00,VWS V14.01,2013-07-23 17:00:00,
2013-07-23 10:05:00,80.8,27.2,27.58,WSW,243,5.4,5.4,14,0.00,,---,0.00,VWS V14.01,2013-07-23 17:05:00,
2013-07-23 10:10:00,81.3,27.6,27.58,WSW,255,2.7,3.6,14,0.00,,---,0.00,VWS V14.01,2013-07-23 17:10:00,
2013-07-23 10:15:00,81.9,28.0,27.58,SW,234,4.0,4.0,14,0.00,,---,0.00,VWS V14.01,2013-07-23 17:15:00,
2013-07-23 10:20:00,82.4,28.5,27.58,SE,136,5.4,5.8,14,0.00,,---,0.00,VWS V14.01,2013-07-23 17:20:00,
2013-07-23 10:25:00,82.6,28.6,27.58,South,170,3.6,3.6,14,0.00,,---,0.00,VWS V14.01,2013-07-23 17:25:00,
2013-07-23 10:30:00,82.9,28.9,27.58,SSW,207,5.4,5.4,14,0.00,,---,0.00,VWS V14.01,2013-07-23 17:30:00,
2013-07-23 10:35:00,83.5,29.3,27.58,WSW,237,6.3,7.6,14,0.00,,---,0.00,VWS V14.01,2013-07-23 17:35:00,
2013-07-23 10:40:00,83.8,29.6,27.58,WSW,238,0.0,6.3,14,0.00,,---,0.00,VWS V14.01,2013-07-23 17:40:00,
2013-07-23 10:45:00,84.2,28.1,27.58,SSW,205,6.3,6.3,13,0.00,,---,0.00,VWS V14.01,2013-07-23 17:45:00,
2013-07-23 10:50:00,84.6,28.4,27.58,SW,216,2.7,6.3,13,0.00,,---,0.00,VWS V14.01,2013-07-23 17:50:00,
2013-07-23 10:55:00,84.6,28.4,27.58,WSW,238,3.6,5.4,13,0.00,,---,0.00,VWS V14.01,2013-07-23 17:55:00,
2013-07-23 11:00:00,85.1,28.8,27.58,SW,220,3.1,3.1,13,0.00,,---,0.00,VWS V14.01,2013-07-23 18:00:00,
2013-07-23 11:06:00,85.3,28.9,27.58,SSW,200,6.3,8.1,13,0.00,,---,0.00,VWS V14.01,2013-07-23 18:06:00,
2013-07-23 11:11:00,85.5,29.1,27.58,SSW,213,5.8,6.3,13,0.00,,---,0.00,VWS V14.01,2013-07-23 18:11:00,
2013-07-23 11:16:00,86.0,29.5,27.58,SE,130,3.1,4.9,13,0.00,,---,0.00,VWS V14.01,2013-07-23 18:16:00,
2013-07-23 11:21:00,85.8,29.4,27.58,SW,214,3.6,4.0,13,0.00,,---,0.00,VWS V14.01,2013-07-23 18:21:00,
2013-07-23 11:26:00,86.4,29.8,27.58,SW,234,5.4,5.4,13,0.00,,---,0.00,VWS V14.01,2013-07-23 18:26:00,
2013-07-23 11:31:00,86.7,30.0,27.58,WNW,303,5.4,7.6,13,0.00,,---,0.00,VWS V14.01,2013-07-23 18:31:00,
2013-07-23 11:36:00,87.1,30.3,27.58,WSW,248,10.5,10.5,13,0.00,,---,0.00,VWS V14.01,2013-07-23 18:36:00,
2013-07-23 11:41:00,87.6,30.8,27.58,SSE,149,2.7,2.7,13,0.00,,---,0.00,VWS V14.01,2013-07-23 18:41:00,
2013-07-23 11:46:00,87.4,30.6,27.58,WSW,238,5.4,5.4,13,0.00,,---,0.00,VWS V14.01,2013-07-23 18:46:00,
2013-07-23 11:51:00,87.6,30.8,27.58,SW,228,4.9,6.3,13,0.00,,---,0.00,VWS V14.01,2013-07-23 18:51:00,
2013-07-23 11:56:00,88.3,31.3,27.58,South,191,2.7,4.0,13,0.00,,---,0.00,VWS V14.01,2013-07-23 18:56:00,
2013-07-23 12:01:00,88.2,31.2,27.58,SW,230,7.6,8.3,13,0.00,,---,0.00,VWS V14.01,2013-07-23 19:01:00,
2013-07-23 12:06:00,88.7,31.6,27.58,WSW,243,7.6,7.6,13,0.00,,---,0.00,VWS V14.01,2013-07-23 19:06:00,
2013-07-23 12:11:00,89.6,30.3,27.58,SW,228,2.7,6.3,12,0.00,,---,0.00,VWS V14.01,2013-07-23 19:11:00,
2013-07-23 12:16:00,89.6,30.3,27.58,NNW,330,5.8,6.3,12,0.00,,---,0.00,VWS V14.01,2013-07-23 19:16:00,
2013-07-23 12:22:00,88.9,31.7,27.58,South,181,0.0,2.2,13,0.00,,---,0.00,VWS V14.01,2013-07-23 19:22:00,
2013-07-23 12:27:00,88.9,31.7,27.58,SSW,198,3.6,8.1,13,0.00,,---,0.00,VWS V14.01,2013-07-23 19:27:00,
2013-07-23 12:32:00,89.8,30.5,27.58,WSW,258,7.2,7.2,12,0.00,,---,0.00,VWS V14.01,2013-07-23 19:32:00,
2013-07-23 12:37:00,89.8,30.5,27.58,North,0,0.0,0.0,12,0.00,,---,0.00,VWS V14.01,2013-07-23 19:37:00,
2013-07-23 12:42:00,90.1,30.7,27.58,NW,313,2.7,6.3,12,0.00,,---,0.00,VWS V14.01,2013-07-23 19:42:00,
2013-07-23 12:47:00,91.0,31.4,27.58,SW,228,8.3,8.3,12,0.00,,---,0.00,VWS V14.01,2013-07-23 19:47:00,
2013-07-23 12:52:00,90.7,31.2,27.58,North,1,4.9,8.1,12,0.00,,---,0.00,VWS V14.01,2013-07-23 19:52:00,
2013-07-23 12:57:00,91.4,31.7,27.58,West,264,10.1,11.0,12,0.00,,---,0.00,VWS V14.01,2013-07-23 19:57:00,
2013-07-23 13:02:00,91.0,31.4,27.58,NW,310,3.6,3.6,12,0.00,,---,0.00,VWS V14.01,2013-07-23 20:02:00,
2013-07-23 13:07:00,90.7,31.2,27.58,NW,311,0.0,0.0,12,0.00,,---,0.00,VWS V14.01,2013-07-23 20:07:00,
2013-07-23 13:12:00,91.2,31.6,27.58,West,273,3.1,4.9,12,0.00,,---,0.00,VWS V14.01,2013-07-23 20:12:00,
2013-07-23 13:17:00,91.9,32.1,27.58,SW,225,7.6,7.6,12,0.00,,---,0.00,VWS V14.01,2013-07-23 20:17:00,
2013-07-23 13:22:00,92.5,32.5,27.58,SW,230,4.9,4.9,12,0.00,,---,0.00,VWS V14.01,2013-07-23 20:22:00,
2013-07-23 13:27:00,92.7,32.7,27.58,WNW,292,5.4,5.4,12,0.00,,---,0.00,VWS V14.01,2013-07-23 20:27:00,
2013-07-23 13:32:00,92.8,32.8,27.58,NNW,331,2.7,2.7,12,0.00,,---,0.00,VWS V14.01,2013-07-23 20:32:00,
2013-07-23 13:37:00,92.5,32.5,27.58,WSW,252,3.6,4.9,12,0.00,,---,0.00,VWS V14.01,2013-07-23 20:37:00,
2013-07-23 13:42:00,93.7,31.4,27.55,WSW,256,5.4,5.8,11,0.00,,---,0.00,VWS V14.01,2013-07-23 20:42:00,
2013-07-23 13:48:00,93.2,31.0,27.55,ESE,110,0.0,0.0,11,0.00,,---,0.00,VWS V14.01,2013-07-23 20:48:00,
2013-07-23 13:53:00,93.4,31.1,27.55,SW,235,6.3,7.6,11,0.00,,---,0.00,VWS V14.01,2013-07-23 20:53:00,
2013-07-23 13:58:00,93.9,31.5,27.55,West,263,0.0,3.6,11,0.00,,---,0.00,VWS V14.01,2013-07-23 20:58:00,
2013-07-23 14:04:00,93.9,31.5,27.55,SSW,203,5.4,10.5,11,0.00,,---,0.00,VWS V14.01,2013-07-23 21:04:00,
2013-07-23 14:09:00,93.9,31.5,27.55,SW,235,4.9,5.8,11,0.00,,---,0.00,VWS V14.01,2013-07-23 21:09:00,
2013-07-23 14:14:00,95.0,32.3,27.55,WNW,286,0.0,6.3,11,0.00,,---,0.00,VWS V14.01,2013-07-23 21:14:00,
2013-07-23 14:19:00,94.3,31.8,27.55,SW,233,3.1,8.7,11,0.00,,---,0.00,VWS V14.01,2013-07-23 21:19:00,
2013-07-23 14:24:00,93.2,31.0,27.55,WNW,284,3.6,3.6,11,0.00,,---,0.00,VWS V14.01,2013-07-23 21:24:00,
2013-07-23 14:29:00,92.3,32.4,27.55,WSW,257,4.0,5.8,12,0.00,,---,0.00,VWS V14.01,2013-07-23 21:29:00,
2013-07-23 14:34:00,92.8,32.8,27.55,WNW,282,7.6,8.1,12,0.00,,---,0.00,VWS V14.01,2013-07-23 21:34:00,
2013-07-23 14:39:00,94.5,31.9,27.55,WSW,245,5.8,12.3,11,0.00,,---,0.00,VWS V14.01,2013-07-23 21:39:00,
2013-07-23 14:44:00,95.0,32.3,27.55,NW,320,8.1,8.3,11,0.00,,---,0.00,VWS V14.01,2013-07-23 21:44:00,
2013-07-23 14:49:00,94.8,32.2,27.55,WSW,243,10.1,11.4,11,0.00,,---,0.00,VWS V14.01,2013-07-23 21:49:00,
2013-07-23 14:54:00,95.7,32.9,27.55,SW,228,2.7,4.0,11,0.00,,---,0.00,VWS V14.01,2013-07-23 21:54:00,
2013-07-23 14:59:00,95.7,32.9,27.55,North,357,0.0,0.0,11,0.00,,---,0.00,VWS V14.01,2013-07-23 21:59:00,
2013-07-23 15:04:00,95.2,32.5,27.55,West,261,5.8,6.3,11,0.00,,---,0.00,VWS V14.01,2013-07-23 22:04:00,
2013-07-23 15:09:00,95.5,32.7,27.55,SW,220,7.6,8.1,11,0.00,,---,0.00,VWS V14.01,2013-07-23 22:09:00,
2013-07-23 15:14:00,95.5,32.7,27.55,SSE,162,0.0,0.0,11,0.00,,---,0.00,VWS V14.01,2013-07-23 22:14:00,
2013-07-23 15:19:00,95.7,32.9,27.55,West,264,8.1,10.1,11,0.00,,---,0.00,VWS V14.01,2013-07-23 22:19:00,
2013-07-23 15:24:00,96.4,33.4,27.55,WSW,258,4.0,8.1,11,0.00,,---,0.00,VWS V14.01,2013-07-23 22:24:00,
2013-07-23 15:29:00,97.0,33.8,27.55,South,190,0.0,2.7,11,0.00,,---,0.00,VWS V14.01,2013-07-23 22:29:00,
2013-07-23 15:34:00,96.4,33.4,27.55,ENE,74,0.0,2.2,11,0.00,,---,0.00,VWS V14.01,2013-07-23 22:34:00,
2013-07-23 15:39:00,95.9,33.0,27.55,NNW,329,2.7,5.8,11,0.00,,---,0.00,VWS V14.01,2013-07-23 22:39:00,
2013-07-23 15:44:00,96.4,33.4,27.55,WSW,251,3.1,4.9,11,0.00,,---,0.00,VWS V14.01,2013-07-23 22:44:00,
2013-07-23 15:49:00,96.3,33.3,27.55,West,280,3.1,3.6,11,0.00,,---,0.00,VWS V14.01,2013-07-23 22:49:00,
2013-07-23 15:55:00,95.5,32.7,27.55,NNW,344,5.8,5.8,11,0.00,,---,0.00,VWS V14.01,2013-07-23 22:55:00,
2013-07-23 16:00:00,95.0,32.3,27.52,SE,130,0.0,2.2,11,0.00,,---,0.00,VWS V14.01,2013-07-23 23:00:00,
2013-07-23 16:05:00,95.0,32.3,27.52,West,277,5.8,5.8,11,0.00,,---,0.00,VWS V14.01,2013-07-23 23:05:00,
2013-07-23 16:10:00,96.3,33.3,27.52,WSW,245,3.1,6.3,11,0.00,,---,0.00,VWS V14.01,2013-07-23 23:10:00,
2013-07-23 16:15:00,96.6,33.6,27.52,SSW,207,8.3,10.1,11,0.00,,---,0.00,VWS V14.01,2013-07-23 23:15:00,
2013-07-23 16:20:00,96.8,33.7,27.52,SW,227,6.3,7.6,11,0.00,,---,0.00,VWS V14.01,2013-07-23 23:20:00,
2013-07-23 16:25:00,97.2,34.0,27.52,WSW,255,4.0,5.4,11,0.00,,---,0.00,VWS V14.01,2013-07-23 23:25:00,
2013-07-23 16:30:00,97.7,34.4,27.52,WSW,249,4.0,4.0,11,0.00,,---,0.00,VWS V14.01,2013-07-23 23:30:00,
2013-07-23 16:35:00,97.7,34.4,27.52,SW,226,3.1,3.1,11,0.00,,---,0.00,VWS V14.01,2013-07-23 23:35:00,
2013-07-23 16:40:00,97.5,34.2,27.52,SW,232,8.1,8.3,11,0.00,,---,0.00,VWS V14.01,2013-07-23 23:40:00,
2013-07-23 16:45:00,97.3,34.1,27.52,West,266,5.4,5.8,11,0.00,,---,0.00,VWS V14.01,2013-07-23 23:45:00,
2013-07-23 16:50:00,97.9,34.5,27.52,West,274,5.8,8.1,11,0.00,,---,0.00,VWS V14.01,2013-07-23 23:50:00,
2013-07-23 16:55:00,97.9,34.5,27.52,WNW,288,5.4,6.3,11,0.00,,---,0.00,VWS V14.01,2013-07-23 23:55:00,
2013-07-23 17:00:00,97.5,34.2,27.52,NW,305,2.7,4.0,11,0.00,,---,0.00,VWS V14.01,2013-07-24 00:00:00,
2013-07-23 17:05:00,97.5,34.2,27.52,NE,39,2.7,3.1,11,0.00,,---,0.00,VWS V14.01,2013-07-24 00:05:00,
2013-07-23 17:10:00,97.0,33.8,27.52,SW,216,8.3,8.3,11,0.00,,---,0.00,VWS V14.01,2013-07-24 00:10:00,
2013-07-23 17:15:00,97.2,34.0,27.52,South,172,0.0,0.0,11,0.00,,---,0.00,VWS V14.01,2013-07-24 00:15:00,
2013-07-23 17:21:00,96.8,33.7,27.52,West,259,6.3,6.3,11,0.00,,---,0.00,VWS V14.01,2013-07-24 00:21:00,
2013-07-23 17:26:00,96.8,33.7,27.52,SW,236,8.3,10.5,11,0.00,,---,0.00,VWS V14.01,2013-07-24 00:26:00,
2013-07-23 17:31:00,96.3,33.3,27.52,North,353,4.9,4.9,11,0.00,,---,0.00,VWS V14.01,2013-07-24 00:31:00,
2013-07-23 17:36:00,96.1,33.2,27.52,NNE,12,0.0,0.0,11,0.00,,---,0.00,VWS V14.01,2013-07-24 00:36:00,
2013-07-23 17:41:00,96.3,33.3,27.52,SW,228,3.1,5.4,11,0.00,,---,0.00,VWS V14.01,2013-07-24 00:41:00,
2013-07-23 17:46:00,96.6,33.6,27.52,WSW,258,0.0,0.0,11,0.00,,---,0.00,VWS V14.01,2013-07-24 00:46:00,
2013-07-23 17:51:00,97.0,33.8,27.52,West,265,5.4,7.6,11,0.00,,---,0.00,VWS V14.01,2013-07-24 00:51:00,
2013-07-23 17:56:00,97.7,34.4,27.52,SSW,210,3.1,4.0,11,0.00,,---,0.00,VWS V14.01,2013-07-24 00:56:00,
2013-07-23 18:02:00,97.9,34.5,27.52,WSW,245,0.0,0.0,11,0.00,,---,0.00,VWS V14.01,2013-07-24 01:02:00,
2013-07-23 18:07:00,97.9,34.5,27.52,WSW,240,6.3,6.3,11,0.00,,---,0.00,VWS V14.01,2013-07-24 01:07:00,
2013-07-23 18:12:00,97.9,34.5,27.52,SW,226,2.7,4.0,11,0.00,,---,0.00,VWS V14.01,2013-07-24 01:12:00,
2013-07-23 18:17:00,97.9,34.5,27.52,West,281,2.7,2.7,11,0.00,,---,0.00,VWS V14.01,2013-07-24 01:17:00,
2013-07-23 18:22:00,97.5,34.2,27.52,SW,234,7.6,7.6,11,0.00,,---,0.00,VWS V14.01,2013-07-24 01:22:00,
2013-07-23 18:27:00,97.2,34.0,27.52,SSW,206,5.4,6.3,11,0.00,,---,0.00,VWS V14.01,2013-07-24 01:27:00,
2013-07-23 18:32:00,96.6,33.6,27.52,SW,228,4.0,4.0,11,0.00,,---,0.00,VWS V14.01,2013-07-24 01:32:00,
2013-07-23 18:37:00,95.9,33.0,27.52,SW,235,3.6,3.6,11,0.00,,---,0.00,VWS V14.01,2013-07-24 01:37:00,
2013-07-23 18:42:00,95.9,33.0,27.49,South,185,0.0,0.0,11,0.00,,---,0.00,VWS V14.01,2013-07-24 01:42:00,
2013-07-23 18:47:00,96.3,33.3,27.49,SW,226,4.0,4.0,11,0.00,,---,0.00,VWS V14.01,2013-07-24 01:47:00,
2013-07-23 18:52:00,96.8,33.7,27.49,WSW,237,7.6,7.6,11,0.00,,---,0.00,VWS V14.01,2013-07-24 01:52:00,
2013-07-23 18:57:00,97.0,33.8,27.49,SW,229,3.1,4.5,11,0.00,,---,0.00,VWS V14.01,2013-07-24 01:57:00,
2013-07-23 19:03:00,97.2,34.0,27.49,WSW,246,3.1,4.0,11,0.00,,---,0.00,VWS V14.01,2013-07-24 02:03:00,
2013-07-23 19:08:00,97.7,34.4,27.49,SW,222,2.2,4.0,11,0.00,,---,0.00,VWS V14.01,2013-07-24 02:08:00,
2013-07-23 19:13:00,97.9,34.5,27.52,WSW,246,4.9,5.4,11,0.00,,---,0.00,VWS V14.01,2013-07-24 02:13:00,
2013-07-23 19:18:00,97.7,34.4,27.52,WSW,256,3.1,3.1,11,0.00,,---,0.00,VWS V14.01,2013-07-24 02:18:00,
2013-07-23 19:23:00,97.7,34.4,27.52,WSW,253,0.0,0.0,11,0.00,,---,0.00,VWS V14.01,2013-07-24 02:23:00,
2013-07-23 19:28:00,97.7,34.4,27.52,WSW,253,0.0,0.0,11,0.00,,---,0.00,VWS V14.01,2013-07-24 02:28:00,
2013-07-23 19:33:00,97.7,34.4,27.52,WSW,251,0.0,0.0,11,0.00,,---,0.00,VWS V14.01,2013-07-24 02:33:00,
2013-07-23 19:38:00,97.5,34.2,27.52,WSW,251,0.0,0.0,11,0.00,,---,0.00,VWS V14.01,2013-07-24 02:38:00,
2013-07-23 19:43:00,97.2,34.0,27.52,WSW,244,0.0,3.1,11,0.00,,---,0.00,VWS V14.01,2013-07-24 02:43:00,
2013-07-23 19:48:00,96.6,33.6,27.52,WSW,244,0.0,0.0,11,0.00,,---,0.00,VWS V14.01,2013-07-24 02:48:00,
2013-07-23 19:53:00,96.3,33.3,27.52,WSW,245,0.0,0.0,11,0.00,,---,0.00,VWS V14.01,2013-07-24 02:53:00,
2013-07-23 19:58:00,95.7,32.9,27.52,WSW,245,0.0,0.0,11,0.00,,---,0.00,VWS V14.01,2013-07-24 02:58:00,
2013-07-23 20:03:00,95.0,32.3,27.52,WSW,244,0.0,0.0,11,0.00,,---,0.00,VWS V14.01,2013-07-24 03:03:00,
2013-07-23 20:08:00,94.3,31.8,27.52,WSW,244,0.0,0.0,11,0.00,,---,0.00,VWS V14.01,2013-07-24 03:08:00,
2013-07-23 20:13:00,93.4,31.1,27.52,WSW,245,0.0,0.0,11,0.00,,---,0.00,VWS V14.01,2013-07-24 03:13:00,
2013-07-23 20:18:00,91.9,32.1,27.52,WSW,243,0.0,0.0,12,0.00,,---,0.00,VWS V14.01,2013-07-24 03:18:00,
2013-07-23 20:23:00,90.3,30.9,27.52,WSW,245,0.0,0.0,12,0.00,,---,0.00,VWS V14.01,2013-07-24 03:23:00,
2013-07-23 20:28:00,88.5,31.5,27.52,WSW,245,0.0,0.0,13,0.00,,---,0.00,VWS V14.01,2013-07-24 03:28:00,
2013-07-23 20:33:00,86.7,30.0,27.52,WSW,245,0.0,0.0,13,0.00,,---,0.00,VWS V14.01,2013-07-24 03:33:00,
2013-07-23 20:38:00,84.9,28.6,27.52,WSW,245,0.0,0.0,13,0.00,,---,0.00,VWS V14.01,2013-07-24 03:38:00,
2013-07-23 20:43:00,83.3,29.2,27.52,WSW,245,0.0,0.0,14,0.00,,---,0.00,VWS V14.01,2013-07-24 03:43:00,
2013-07-23 20:48:00,81.9,28.0,27.52,WSW,245,0.0,0.0,14,0.00,,---,0.00,VWS V14.01,2013-07-24 03:48:00,
2013-07-23 20:54:00,80.4,28.6,27.52,WSW,245,0.0,0.0,15,0.00,,---,0.00,VWS V14.01,2013-07-24 03:54:00,
2013-07-23 20:59:00,79.2,27.6,27.52,WSW,245,0.0,0.0,15,0.00,,---,0.00,VWS V14.01,2013-07-24 03:59:00,
2013-07-23 21:01:00,78.8,27.3,27.52,WSW,245,0.0,0.0,15,0.00,,---,0.00,VWS V14.01,2013-07-24 04:01:00,
2013-07-23 21:02:00,78.6,27.1,27.52,WSW,244,0.0,0.0,15,0.00,,---,0.00,VWS V14.01,2013-07-24 04:02:00,
2013-07-23 21:07:00,77.7,26.4,27.52,SE,146,0.0,2.2,15,0.00,,---,0.00,VWS V14.01,2013-07-24 04:07:00,
2013-07-23 21:12:00,77.0,25.9,27.52,SE,146,0.0,0.0,15,0.00,,---,0.00,VWS V14.01,2013-07-24 04:12:00,
2013-07-23 21:17:00,76.3,25.3,27.52,SE,146,0.0,0.0,15,0.00,,---,0.00,VWS V14.01,2013-07-24 04:17:00,
2013-07-23 21:22:00,75.7,21.5,27.52,SE,146,0.0,0.0,13,0.00,,---,0.00,VWS V14.01,2013-07-24 04:22:00,
2013-07-23 21:27:00,75.4,21.2,27.52,SE,145,0.0,0.0,13,0.00,,---,0.00,VWS V14.01,2013-07-24 04:27:00,
2013-07-23 21:32:00,74.8,20.7,27.52,SE,145,0.0,0.0,13,0.00,,---,0.00,VWS V14.01,2013-07-24 04:32:00,
2013-07-23 21:37:00,74.5,20.5,27.52,SE,146,0.0,0.0,13,0.00,,---,0.00,VWS V14.01,2013-07-24 04:37:00,
2013-07-23 21:42:00,74.1,20.2,27.52,SE,145,0.0,0.0,13,0.00,,---,0.00,VWS V14.01,2013-07-24 04:42:00,
2013-07-23 21:47:00,73.9,20.0,27.52,SE,146,0.0,0.0,13,0.00,,---,0.00,VWS V14.01,2013-07-24 04:47:00,
2013-07-23 21:52:00,73.4,19.6,27.52,SE,145,0.0,0.0,13,0.00,,---,0.00,VWS V14.01,2013-07-24 04:52:00,
2013-07-23 21:57:00,72.9,20.9,27.52,SE,145,0.0,0.0,14,0.00,,---,0.00,VWS V14.01,2013-07-24 04:57:00,
2013-07-23 22:02:00,72.1,20.4,27.52,SE,145,0.0,0.0,14,0.00,,---,0.00,VWS V14.01,2013-07-24 05:02:00,
2013-07-23 22:07:00,71.6,19.9,27.52,SE,145,0.0,0.0,14,0.00,,---,0.00,VWS V14.01,2013-07-24 05:07:00,
2013-07-23 22:12:00,71.1,19.5,27.52,SE,146,0.0,0.0,14,0.00,,---,0.00,VWS V14.01,2013-07-24 05:12:00,
2013-07-23 22:17:00,70.5,19.1,27.52,SE,146,0.0,0.0,14,0.00,,---,0.00,VWS V14.01,2013-07-24 05:17:00,
2013-07-23 22:22:00,70.3,18.9,27.52,SE,145,0.0,0.0,14,0.00,,---,0.00,VWS V14.01,2013-07-24 05:22:00,
2013-07-23 22:27:00,70.2,18.8,27.52,SE,146,0.0,0.0,14,0.00,,---,0.00,VWS V14.01,2013-07-24 05:27:00,
2013-07-23 22:32:00,69.8,18.5,27.52,SE,145,0.0,0.0,14,0.00,,---,0.00,VWS V14.01,2013-07-24 05:32:00,
2013-07-23 22:37:00,69.4,19.8,27.52,SE,146,0.0,0.0,15,0.00,,---,0.00,VWS V14.01,2013-07-24 05:37:00,
2013-07-23 22:42:00,69.3,19.7,27.52,SE,146,0.0,0.0,15,0.00,,---,0.00,VWS V14.01,2013-07-24 05:42:00,
2013-07-23 22:47:00,69.1,19.5,27.52,SE,145,0.0,0.0,15,0.00,,---,0.00,VWS V14.01,2013-07-24 05:47:00,
2013-07-23 22:52:00,68.9,19.4,27.52,SE,145,0.0,0.0,15,0.00,,---,0.00,VWS V14.01,2013-07-24 05:52:00,
2013-07-23 22:57:00,68.5,19.1,27.52,SE,145,0.0,0.0,15,0.00,,---,0.00,VWS V14.01,2013-07-24 05:57:00,
2013-07-23 23:02:00,68.4,19.0,27.52,SE,145,0.0,0.0,15,0.00,,---,0.00,VWS V14.01,2013-07-24 06:02:00,
2013-07-23 23:07:00,68.4,19.0,27.52,SE,146,0.0,0.0,15,0.00,,---,0.00,VWS V14.01,2013-07-24 06:07:00,
2013-07-23 23:12:00,68.0,18.7,27.52,SE,145,0.0,0.0,15,0.00,,---,0.00,VWS V14.01,2013-07-24 06:12:00,
2013-07-23 23:17:00,67.6,18.4,27.52,SE,145,0.0,0.0,15,0.00,,---,0.00,VWS V14.01,2013-07-24 06:17:00,
2013-07-23 23:22:00,67.3,18.1,27.52,SE,145,0.0,0.0,15,0.00,,---,0.00,VWS V14.01,2013-07-24 06:22:00,
2013-07-23 23:27:00,67.1,17.9,27.52,SE,145,0.0,0.0,15,0.00,,---,0.00,VWS V14.01,2013-07-24 06:27:00,
2013-07-23 23:32:00,67.1,17.9,27.52,SE,145,0.0,0.0,15,0.00,,---,0.00,VWS V14.01,2013-07-24 06:32:00,
2013-07-23 23:37:00,66.7,17.6,27.52,SE,146,0.0,0.0,15,0.00,,---,0.00,VWS V14.01,2013-07-24 06:37:00,
2013-07-23 23:42:00,66.4,17.4,27.52,SE,146,0.0,0.0,15,0.00,,---,0.00,VWS V14.01,2013-07-24 06:42:00,
2013-07-23 23:47:00,66.2,17.2,27.52,SE,146,0.0,0.0,15,0.00,,---,0.00,VWS V14.01,2013-07-24 06:47:00,
2013-07-23 23:52:00,66.0,17.1,27.52,SE,146,0.0,0.0,15,0.00,,---,0.00,VWS V14.01,2013-07-24 06:52:00,
2013-07-23 23:57:00,65.8,16.9,27.52,SE,145,0.0,0.0,15,0.00,,---,0.00,VWS V14.01,2013-07-24 06:57:00,